sensor_id;sensor_type;location;lat;lon;timestamp;P1;durP1;ratioP1;P2;durP2;ratioP2
8104;SDS011;4095;48.942;9.104;2022-08-21T00:00:25;3.07;;;2.30;;
8104;SDS011;4095;48.942;9.104;2022-08-21T00:02:56;3.80;;;2.40;;
8104;SDS011;4095;48.942;9.104;2022-08-21T00:05:26;5.10;;;2.67;;
8104;SDS011;4095;48.942;9.104;2022-08-21T00:07:52;3.70;;;2.33;;
8104;SDS011;4095;48.942;9.104;2022-08-21T00:10:19;3.37;;;2.40;;
8104;SDS011;4095;48.942;9.104;2022-08-21T00:12:45;3.10;;;2.20;;
8104;SDS011;4095;48.942;9.104;2022-08-21T00:15:12;3.70;;;2.50;;
8104;SDS011;4095;48.942;9.104;2022-08-21T00:17:40;3.40;;;2.33;;
8104;SDS011;4095;48.942;9.104;2022-08-21T00:20:07;3.93;;;2.30;;
8104;SDS011;4095;48.942;9.104;2022-08-21T00:22:34;3.90;;;2.30;;
8104;SDS011;4095;48.942;9.104;2022-08-21T00:25:02;3.67;;;2.50;;
8104;SDS011;4095;48.942;9.104;2022-08-21T00:27:29;4.00;;;2.30;;
8104;SDS011;4095;48.942;9.104;2022-08-21T00:29:55;3.87;;;2.40;;
8104;SDS011;4095;48.942;9.104;2022-08-21T00:32:21;3.27;;;2.07;;
8104;SDS011;4095;48.942;9.104;2022-08-21T00:34:48;2.20;;;1.90;;
8104;SDS011;4095;48.942;9.104;2022-08-21T00:37:14;3.67;;;2.10;;
8104;SDS011;4095;48.942;9.104;2022-08-21T00:39:40;3.20;;;2.10;;
8104;SDS011;4095;48.942;9.104;2022-08-21T00:42:05;3.07;;;2.20;;
8104;SDS011;4095;48.942;9.104;2022-08-21T00:44:31;3.33;;;2.33;;
8104;SDS011;4095;48.942;9.104;2022-08-21T00:46:56;3.80;;;2.10;;
8104;SDS011;4095;48.942;9.104;2022-08-21T00:49:22;4.67;;;2.10;;
8104;SDS011;4095;48.942;9.104;2022-08-21T00:51:52;4.53;;;2.43;;
8104;SDS011;4095;48.942;9.104;2022-08-21T00:54:20;4.47;;;2.20;;
8104;SDS011;4095;48.942;9.104;2022-08-21T00:56:50;3.60;;;2.00;;
8104;SDS011;4095;48.942;9.104;2022-08-21T00:59:20;3.67;;;2.30;;
8104;SDS011;4095;48.942;9.104;2022-08-21T01:01:48;5.10;;;2.50;;
8104;SDS011;4095;48.942;9.104;2022-08-21T01:04:14;3.13;;;2.40;;
8104;SDS011;4095;48.942;9.104;2022-08-21T01:06:41;3.73;;;2.40;;
8104;SDS011;4095;48.942;9.104;2022-08-21T01:09:07;3.07;;;2.33;;
8104;SDS011;4095;48.942;9.104;2022-08-21T01:11:33;3.40;;;2.40;;
8104;SDS011;4095;48.942;9.104;2022-08-21T01:14:00;4.30;;;2.20;;
8104;SDS011;4095;48.942;9.104;2022-08-21T01:16:25;3.60;;;2.37;;
8104;SDS011;4095;48.942;9.104;2022-08-21T01:18:51;3.03;;;2.47;;
8104;SDS011;4095;48.942;9.104;2022-08-21T01:21:18;4.67;;;2.40;;
8104;SDS011;4095;48.942;9.104;2022-08-21T01:23:51;3.63;;;2.13;;
8104;SDS011;4095;48.942;9.104;2022-08-21T01:26:19;4.57;;;2.50;;
8104;SDS011;4095;48.942;9.104;2022-08-21T01:28:49;3.63;;;2.47;;
8104;SDS011;4095;48.942;9.104;2022-08-21T01:31:22;5.60;;;2.90;;
8104;SDS011;4095;48.942;9.104;2022-08-21T01:33:50;4.37;;;2.80;;
8104;SDS011;4095;48.942;9.104;2022-08-21T01:36:15;5.20;;;2.70;;
8104;SDS011;4095;48.942;9.104;2022-08-21T01:38:41;4.10;;;2.50;;
8104;SDS011;4095;48.942;9.104;2022-08-21T01:41:07;2.97;;;2.50;;
8104;SDS011;4095;48.942;9.104;2022-08-21T01:43:32;2.97;;;2.50;;
8104;SDS011;4095;48.942;9.104;2022-08-21T01:45:58;3.80;;;2.63;;
8104;SDS011;4095;48.942;9.104;2022-08-21T01:48:24;3.23;;;2.47;;
8104;SDS011;4095;48.942;9.104;2022-08-21T01:50:49;6.33;;;2.63;;
8104;SDS011;4095;48.942;9.104;2022-08-21T01:53:15;4.37;;;2.60;;
8104;SDS011;4095;48.942;9.104;2022-08-21T01:55:41;4.83;;;2.80;;
8104;SDS011;4095;48.942;9.104;2022-08-21T01:58:08;5.17;;;2.33;;
8104;SDS011;4095;48.942;9.104;2022-08-21T02:00:33;3.97;;;2.57;;
8104;SDS011;4095;48.942;9.104;2022-08-21T02:02:59;3.97;;;2.70;;
8104;SDS011;4095;48.942;9.104;2022-08-21T02:05:24;3.80;;;2.40;;
8104;SDS011;4095;48.942;9.104;2022-08-21T02:07:50;3.53;;;2.40;;
8104;SDS011;4095;48.942;9.104;2022-08-21T02:10:19;4.27;;;2.60;;
8104;SDS011;4095;48.942;9.104;2022-08-21T02:12:51;3.73;;;2.50;;
8104;SDS011;4095;48.942;9.104;2022-08-21T02:15:17;5.37;;;2.50;;
8104;SDS011;4095;48.942;9.104;2022-08-21T02:17:54;4.87;;;2.20;;
8104;SDS011;4095;48.942;9.104;2022-08-21T02:20:26;3.63;;;2.57;;
8104;SDS011;4095;48.942;9.104;2022-08-21T02:22:56;3.70;;;2.50;;
8104;SDS011;4095;48.942;9.104;2022-08-21T02:25:23;4.10;;;2.60;;
8104;SDS011;4095;48.942;9.104;2022-08-21T02:27:50;4.43;;;2.60;;
8104;SDS011;4095;48.942;9.104;2022-08-21T02:30:18;3.60;;;2.30;;
8104;SDS011;4095;48.942;9.104;2022-08-21T02:32:47;4.93;;;2.53;;
8104;SDS011;4095;48.942;9.104;2022-08-21T02:35:12;4.83;;;2.97;;
8104;SDS011;4095;48.942;9.104;2022-08-21T02:40:18;3.30;;;2.30;;
8104;SDS011;4095;48.942;9.104;2022-08-21T02:42:46;4.00;;;2.40;;
8104;SDS011;4095;48.942;9.104;2022-08-21T02:45:12;5.33;;;2.77;;
8104;SDS011;4095;48.942;9.104;2022-08-21T02:47:38;4.53;;;2.63;;
8104;SDS011;4095;48.942;9.104;2022-08-21T02:50:05;4.63;;;2.73;;
8104;SDS011;4095;48.942;9.104;2022-08-21T02:52:32;4.80;;;2.37;;
8104;SDS011;4095;48.942;9.104;2022-08-21T02:54:59;3.77;;;2.67;;
8104;SDS011;4095;48.942;9.104;2022-08-21T02:57:25;5.57;;;3.00;;
8104;SDS011;4095;48.942;9.104;2022-08-21T02:59:51;4.63;;;2.80;;
8104;SDS011;4095;48.942;9.104;2022-08-21T03:02:17;4.03;;;2.73;;
8104;SDS011;4095;48.942;9.104;2022-08-21T03:04:42;3.63;;;2.67;;
8104;SDS011;4095;48.942;9.104;2022-08-21T03:07:08;4.03;;;2.67;;
8104;SDS011;4095;48.942;9.104;2022-08-21T03:09:33;3.13;;;2.50;;
8104;SDS011;4095;48.942;9.104;2022-08-21T03:11:59;4.13;;;2.70;;
8104;SDS011;4095;48.942;9.104;2022-08-21T03:14:24;3.10;;;2.80;;
8104;SDS011;4095;48.942;9.104;2022-08-21T03:16:50;6.80;;;2.73;;
8104;SDS011;4095;48.942;9.104;2022-08-21T03:19:16;5.57;;;3.23;;
8104;SDS011;4095;48.942;9.104;2022-08-21T03:21:41;5.20;;;2.73;;
8104;SDS011;4095;48.942;9.104;2022-08-21T03:24:07;5.50;;;3.30;;
8104;SDS011;4095;48.942;9.104;2022-08-21T03:26:33;3.80;;;2.80;;
8104;SDS011;4095;48.942;9.104;2022-08-21T03:28:59;6.27;;;2.87;;
8104;SDS011;4095;48.942;9.104;2022-08-21T03:31:25;3.47;;;2.60;;
8104;SDS011;4095;48.942;9.104;2022-08-21T03:33:55;3.60;;;2.67;;
8104;SDS011;4095;48.942;9.104;2022-08-21T03:36:21;4.17;;;3.00;;
8104;SDS011;4095;48.942;9.104;2022-08-21T03:38:47;4.13;;;2.70;;
8104;SDS011;4095;48.942;9.104;2022-08-21T03:41:13;4.20;;;2.97;;
8104;SDS011;4095;48.942;9.104;2022-08-21T03:43:38;4.43;;;2.40;;
8104;SDS011;4095;48.942;9.104;2022-08-21T03:46:04;3.60;;;2.60;;
8104;SDS011;4095;48.942;9.104;2022-08-21T03:48:31;3.20;;;2.67;;
8104;SDS011;4095;48.942;9.104;2022-08-21T03:50:56;4.33;;;2.90;;
8104;SDS011;4095;48.942;9.104;2022-08-21T03:53:22;5.40;;;3.07;;
8104;SDS011;4095;48.942;9.104;2022-08-21T03:55:49;4.30;;;3.10;;
8104;SDS011;4095;48.942;9.104;2022-08-21T03:58:18;4.63;;;3.03;;
8104;SDS011;4095;48.942;9.104;2022-08-21T04:00:46;3.17;;;2.67;;
8104;SDS011;4095;48.942;9.104;2022-08-21T04:03:14;3.40;;;2.73;;
8104;SDS011;4095;48.942;9.104;2022-08-21T04:05:40;4.27;;;2.60;;
8104;SDS011;4095;48.942;9.104;2022-08-21T04:08:06;4.73;;;2.90;;
8104;SDS011;4095;48.942;9.104;2022-08-21T04:10:34;6.73;;;3.30;;
8104;SDS011;4095;48.942;9.104;2022-08-21T04:13:02;6.13;;;3.53;;
8104;SDS011;4095;48.942;9.104;2022-08-21T04:15:28;4.30;;;3.20;;
8104;SDS011;4095;48.942;9.104;2022-08-21T04:17:54;3.60;;;3.03;;
8104;SDS011;4095;48.942;9.104;2022-08-21T04:20:20;5.70;;;3.70;;
8104;SDS011;4095;48.942;9.104;2022-08-21T04:22:47;5.17;;;3.47;;
8104;SDS011;4095;48.942;9.104;2022-08-21T04:25:13;5.73;;;3.80;;
8104;SDS011;4095;48.942;9.104;2022-08-21T04:27:40;6.07;;;3.67;;
8104;SDS011;4095;48.942;9.104;2022-08-21T04:30:07;3.70;;;3.37;;
8104;SDS011;4095;48.942;9.104;2022-08-21T04:32:34;5.73;;;3.77;;
8104;SDS011;4095;48.942;9.104;2022-08-21T04:35:00;5.13;;;3.20;;
8104;SDS011;4095;48.942;9.104;2022-08-21T04:37:30;5.00;;;2.90;;
8104;SDS011;4095;48.942;9.104;2022-08-21T04:39:56;3.93;;;3.17;;
8104;SDS011;4095;48.942;9.104;2022-08-21T04:42:23;5.20;;;3.30;;
8104;SDS011;4095;48.942;9.104;2022-08-21T04:44:49;4.53;;;2.97;;
8104;SDS011;4095;48.942;9.104;2022-08-21T04:47:15;6.23;;;3.17;;
8104;SDS011;4095;48.942;9.104;2022-08-21T04:49:41;4.90;;;3.10;;
8104;SDS011;4095;48.942;9.104;2022-08-21T04:52:08;4.73;;;3.03;;
8104;SDS011;4095;48.942;9.104;2022-08-21T04:54:33;3.40;;;3.10;;
8104;SDS011;4095;48.942;9.104;2022-08-21T04:57:00;3.80;;;3.13;;
8104;SDS011;4095;48.942;9.104;2022-08-21T04:59:31;4.40;;;3.13;;
8104;SDS011;4095;48.942;9.104;2022-08-21T05:02:00;5.70;;;3.40;;
8104;SDS011;4095;48.942;9.104;2022-08-21T05:04:28;5.27;;;3.60;;
8104;SDS011;4095;48.942;9.104;2022-08-21T05:06:56;6.17;;;3.40;;
8104;SDS011;4095;48.942;9.104;2022-08-21T05:09:26;5.50;;;3.57;;
8104;SDS011;4095;48.942;9.104;2022-08-21T05:11:53;4.17;;;3.43;;
8104;SDS011;4095;48.942;9.104;2022-08-21T05:14:19;5.90;;;3.27;;
8104;SDS011;4095;48.942;9.104;2022-08-21T05:16:45;4.43;;;3.60;;
8104;SDS011;4095;48.942;9.104;2022-08-21T05:19:12;3.83;;;3.17;;
8104;SDS011;4095;48.942;9.104;2022-08-21T05:21:38;4.43;;;3.13;;
8104;SDS011;4095;48.942;9.104;2022-08-21T05:24:06;4.20;;;3.20;;
8104;SDS011;4095;48.942;9.104;2022-08-21T05:26:32;4.43;;;3.13;;
8104;SDS011;4095;48.942;9.104;2022-08-21T05:28:58;6.67;;;3.40;;
8104;SDS011;4095;48.942;9.104;2022-08-21T05:31:23;4.60;;;3.37;;
8104;SDS011;4095;48.942;9.104;2022-08-21T05:33:49;3.50;;;3.20;;
8104;SDS011;4095;48.942;9.104;2022-08-21T05:36:16;4.13;;;3.40;;
8104;SDS011;4095;48.942;9.104;2022-08-21T05:38:42;4.90;;;3.50;;
8104;SDS011;4095;48.942;9.104;2022-08-21T05:41:08;4.57;;;3.57;;
8104;SDS011;4095;48.942;9.104;2022-08-21T05:43:34;7.70;;;3.60;;
8104;SDS011;4095;48.942;9.104;2022-08-21T05:46:01;4.93;;;3.70;;
8104;SDS011;4095;48.942;9.104;2022-08-21T05:48:27;4.20;;;3.50;;
8104;SDS011;4095;48.942;9.104;2022-08-21T05:50:53;5.63;;;3.67;;
8104;SDS011;4095;48.942;9.104;2022-08-21T05:53:19;4.40;;;3.53;;
8104;SDS011;4095;48.942;9.104;2022-08-21T05:55:46;4.47;;;3.80;;
8104;SDS011;4095;48.942;9.104;2022-08-21T05:58:13;6.47;;;4.00;;
8104;SDS011;4095;48.942;9.104;2022-08-21T06:00:41;4.40;;;3.70;;
8104;SDS011;4095;48.942;9.104;2022-08-21T06:03:11;4.10;;;3.70;;
8104;SDS011;4095;48.942;9.104;2022-08-21T06:05:37;4.77;;;3.90;;
8104;SDS011;4095;48.942;9.104;2022-08-21T06:08:04;7.27;;;4.13;;
8104;SDS011;4095;48.942;9.104;2022-08-21T06:10:30;6.30;;;4.40;;
8104;SDS011;4095;48.942;9.104;2022-08-21T06:12:56;5.90;;;3.87;;
8104;SDS011;4095;48.942;9.104;2022-08-21T06:15:21;5.37;;;4.67;;
8104;SDS011;4095;48.942;9.104;2022-08-21T06:17:47;4.70;;;4.00;;
8104;SDS011;4095;48.942;9.104;2022-08-21T06:20:12;6.97;;;4.03;;
8104;SDS011;4095;48.942;9.104;2022-08-21T06:22:38;5.57;;;4.00;;
8104;SDS011;4095;48.942;9.104;2022-08-21T06:25:03;5.50;;;4.27;;
8104;SDS011;4095;48.942;9.104;2022-08-21T06:27:30;4.73;;;4.00;;
8104;SDS011;4095;48.942;9.104;2022-08-21T06:29:55;5.47;;;3.70;;
8104;SDS011;4095;48.942;9.104;2022-08-21T06:32:22;5.07;;;3.97;;
8104;SDS011;4095;48.942;9.104;2022-08-21T06:34:48;4.87;;;3.90;;
8104;SDS011;4095;48.942;9.104;2022-08-21T06:37:13;7.87;;;4.50;;
8104;SDS011;4095;48.942;9.104;2022-08-21T06:39:39;6.50;;;4.20;;
8104;SDS011;4095;48.942;9.104;2022-08-21T06:42:05;5.70;;;3.90;;
8104;SDS011;4095;48.942;9.104;2022-08-21T06:44:30;4.03;;;3.60;;
8104;SDS011;4095;48.942;9.104;2022-08-21T06:46:56;4.13;;;3.40;;
8104;SDS011;4095;48.942;9.104;2022-08-21T06:49:22;4.83;;;3.20;;
8104;SDS011;4095;48.942;9.104;2022-08-21T06:51:48;5.50;;;3.97;;
8104;SDS011;4095;48.942;9.104;2022-08-21T06:54:13;4.97;;;3.80;;
8104;SDS011;4095;48.942;9.104;2022-08-21T06:56:39;5.60;;;3.83;;
8104;SDS011;4095;48.942;9.104;2022-08-21T06:59:05;3.80;;;3.40;;
8104;SDS011;4095;48.942;9.104;2022-08-21T07:01:30;5.43;;;3.37;;
8104;SDS011;4095;48.942;9.104;2022-08-21T07:03:56;7.50;;;3.70;;
8104;SDS011;4095;48.942;9.104;2022-08-21T07:06:22;5.60;;;3.60;;
8104;SDS011;4095;48.942;9.104;2022-08-21T07:08:48;5.43;;;3.90;;
8104;SDS011;4095;48.942;9.104;2022-08-21T07:11:15;7.50;;;3.90;;
8104;SDS011;4095;48.942;9.104;2022-08-21T07:13:44;4.70;;;3.50;;
8104;SDS011;4095;48.942;9.104;2022-08-21T07:16:10;3.83;;;3.53;;
8104;SDS011;4095;48.942;9.104;2022-08-21T07:18:36;5.50;;;3.77;;
8104;SDS011;4095;48.942;9.104;2022-08-21T07:21:03;5.67;;;3.20;;
8104;SDS011;4095;48.942;9.104;2022-08-21T07:23:32;4.83;;;3.70;;
8104;SDS011;4095;48.942;9.104;2022-08-21T07:26:01;6.83;;;3.53;;
8104;SDS011;4095;48.942;9.104;2022-08-21T07:28:27;4.80;;;3.33;;
8104;SDS011;4095;48.942;9.104;2022-08-21T07:30:54;4.17;;;3.10;;
8104;SDS011;4095;48.942;9.104;2022-08-21T07:33:22;3.60;;;2.80;;
8104;SDS011;4095;48.942;9.104;2022-08-21T07:35:49;6.73;;;3.17;;
8104;SDS011;4095;48.942;9.104;2022-08-21T07:38:14;5.17;;;3.10;;
8104;SDS011;4095;48.942;9.104;2022-08-21T07:40:40;3.67;;;2.60;;
8104;SDS011;4095;48.942;9.104;2022-08-21T07:43:06;8.83;;;2.97;;
8104;SDS011;4095;48.942;9.104;2022-08-21T07:45:31;8.67;;;3.23;;
8104;SDS011;4095;48.942;9.104;2022-08-21T07:47:57;7.93;;;3.10;;
8104;SDS011;4095;48.942;9.104;2022-08-21T07:50:23;4.23;;;2.77;;
8104;SDS011;4095;48.942;9.104;2022-08-21T07:52:49;4.43;;;2.60;;
8104;SDS011;4095;48.942;9.104;2022-08-21T07:55:16;4.77;;;2.73;;
8104;SDS011;4095;48.942;9.104;2022-08-21T07:57:44;5.37;;;3.07;;
8104;SDS011;4095;48.942;9.104;2022-08-21T08:00:12;5.80;;;3.00;;
8104;SDS011;4095;48.942;9.104;2022-08-21T08:02:40;6.35;;;3.10;;
8104;SDS011;4095;48.942;9.104;2022-08-21T08:05:07;4.70;;;3.00;;
8104;SDS011;4095;48.942;9.104;2022-08-21T08:07:34;5.50;;;2.67;;
8104;SDS011;4095;48.942;9.104;2022-08-21T08:10:01;4.57;;;2.65;;
8104;SDS011;4095;48.942;9.104;2022-08-21T08:12:27;7.10;;;3.03;;
8104;SDS011;4095;48.942;9.104;2022-08-21T08:14:58;4.05;;;2.40;;
8104;SDS011;4095;48.942;9.104;2022-08-21T08:17:24;4.73;;;3.10;;
8104;SDS011;4095;48.942;9.104;2022-08-21T08:19:50;5.55;;;2.70;;
8104;SDS011;4095;48.942;9.104;2022-08-21T08:22:17;6.20;;;3.20;;
8104;SDS011;4095;48.942;9.104;2022-08-21T08:24:47;5.45;;;3.50;;
8104;SDS011;4095;48.942;9.104;2022-08-21T08:27:13;6.15;;;3.28;;
8104;SDS011;4095;48.942;9.104;2022-08-21T08:29:40;6.88;;;3.60;;
8104;SDS011;4095;48.942;9.104;2022-08-21T08:32:05;5.50;;;3.28;;
8104;SDS011;4095;48.942;9.104;2022-08-21T08:34:34;6.75;;;3.38;;
8104;SDS011;4095;48.942;9.104;2022-08-21T08:37:02;5.10;;;3.60;;
8104;SDS011;4095;48.942;9.104;2022-08-21T08:39:28;5.68;;;3.78;;
8104;SDS011;4095;48.942;9.104;2022-08-21T08:41:56;7.15;;;3.90;;
8104;SDS011;4095;48.942;9.104;2022-08-21T08:44:41;4.63;;;3.45;;
8104;SDS011;4095;48.942;9.104;2022-08-21T08:47:12;6.15;;;3.42;;
8104;SDS011;4095;48.942;9.104;2022-08-21T08:49:42;4.85;;;3.30;;
8104;SDS011;4095;48.942;9.104;2022-08-21T08:52:22;6.47;;;3.55;;
8104;SDS011;4095;48.942;9.104;2022-08-21T08:57:27;5.38;;;3.38;;
8104;SDS011;4095;48.942;9.104;2022-08-21T08:59:56;6.00;;;3.50;;
8104;SDS011;4095;48.942;9.104;2022-08-21T09:02:23;6.18;;;3.40;;
8104;SDS011;4095;48.942;9.104;2022-08-21T09:04:50;6.38;;;3.38;;
8104;SDS011;4095;48.942;9.104;2022-08-21T09:15:59;7.00;;;3.60;;
8104;SDS011;4095;48.942;9.104;2022-08-21T09:29:24;5.75;;;3.03;;
8104;SDS011;4095;48.942;9.104;2022-08-21T09:31:53;5.65;;;3.03;;
8104;SDS011;4095;48.942;9.104;2022-08-21T09:34:26;7.93;;;3.67;;
8104;SDS011;4095;48.942;9.104;2022-08-21T09:36:53;6.20;;;3.50;;
8104;SDS011;4095;48.942;9.104;2022-08-21T09:39:30;6.70;;;3.40;;
8104;SDS011;4095;48.942;9.104;2022-08-21T09:42:03;5.97;;;3.55;;
8104;SDS011;4095;48.942;9.104;2022-08-21T09:44:33;6.13;;;3.10;;
8104;SDS011;4095;48.942;9.104;2022-08-21T09:47:05;4.35;;;3.00;;
8104;SDS011;4095;48.942;9.104;2022-08-21T09:49:33;5.13;;;3.15;;
8104;SDS011;4095;48.942;9.104;2022-08-21T09:52:00;7.38;;;3.20;;
8104;SDS011;4095;48.942;9.104;2022-08-21T09:54:31;6.55;;;3.10;;
8104;SDS011;4095;48.942;9.104;2022-08-21T09:59:53;5.00;;;3.03;;
8104;SDS011;4095;48.942;9.104;2022-08-21T10:02:24;7.43;;;3.30;;
8104;SDS011;4095;48.942;9.104;2022-08-21T10:05:15;4.65;;;3.08;;
8104;SDS011;4095;48.942;9.104;2022-08-21T10:07:49;6.25;;;3.55;;
8104;SDS011;4095;48.942;9.104;2022-08-21T10:10:18;6.32;;;2.88;;
8104;SDS011;4095;48.942;9.104;2022-08-21T10:12:54;4.68;;;2.80;;
8104;SDS011;4095;48.942;9.104;2022-08-21T10:21:22;5.90;;;2.90;;
8104;SDS011;4095;48.942;9.104;2022-08-21T10:27:05;5.38;;;3.20;;
8104;SDS011;4095;48.942;9.104;2022-08-21T10:32:28;6.35;;;3.00;;
8104;SDS011;4095;48.942;9.104;2022-08-21T10:41:03;5.05;;;3.00;;
8104;SDS011;4095;48.942;9.104;2022-08-21T10:46:40;4.25;;;2.88;;
8104;SDS011;4095;48.942;9.104;2022-08-21T10:55:04;6.47;;;3.17;;
8104;SDS011;4095;48.942;9.104;2022-08-21T11:00:20;5.90;;;3.30;;
8104;SDS011;4095;48.942;9.104;2022-08-21T11:03:00;6.97;;;3.00;;
8104;SDS011;4095;48.942;9.104;2022-08-21T11:08:07;6.05;;;3.00;;
8104;SDS011;4095;48.942;9.104;2022-08-21T11:10:48;5.28;;;2.53;;
8104;SDS011;4095;48.942;9.104;2022-08-21T11:13:24;6.60;;;2.83;;
8104;SDS011;4095;48.942;9.104;2022-08-21T11:16:05;4.60;;;2.80;;
8104;SDS011;4095;48.942;9.104;2022-08-21T11:19:00;4.18;;;2.80;;
8104;SDS011;4095;48.942;9.104;2022-08-21T11:21:49;5.43;;;2.80;;
8104;SDS011;4095;48.942;9.104;2022-08-21T11:29:44;3.58;;;2.40;;
8104;SDS011;4095;48.942;9.104;2022-08-21T11:46:39;3.67;;;2.28;;
8104;SDS011;4095;48.942;9.104;2022-08-21T11:59:32;3.80;;;2.33;;
8104;SDS011;4095;48.942;9.104;2022-08-21T12:02:05;4.43;;;2.42;;
8104;SDS011;4095;48.942;9.104;2022-08-21T12:04:44;5.13;;;3.00;;
8104;SDS011;4095;48.942;9.104;2022-08-21T12:07:18;4.05;;;2.45;;
8104;SDS011;4095;48.942;9.104;2022-08-21T12:10:19;3.42;;;2.20;;
8104;SDS011;4095;48.942;9.104;2022-08-21T12:13:04;3.63;;;1.95;;
8104;SDS011;4095;48.942;9.104;2022-08-21T12:15:36;4.57;;;2.25;;
8104;SDS011;4095;48.942;9.104;2022-08-21T12:18:07;5.07;;;2.45;;
8104;SDS011;4095;48.942;9.104;2022-08-21T12:23:44;4.07;;;2.60;;
8104;SDS011;4095;48.942;9.104;2022-08-21T12:26:35;4.45;;;2.50;;
8104;SDS011;4095;48.942;9.104;2022-08-21T12:29:15;5.53;;;2.55;;
8104;SDS011;4095;48.942;9.104;2022-08-21T12:31:51;3.85;;;2.40;;
8104;SDS011;4095;48.942;9.104;2022-08-21T12:34:23;4.75;;;2.33;;
8104;SDS011;4095;48.942;9.104;2022-08-21T12:37:18;4.32;;;2.25;;
8104;SDS011;4095;48.942;9.104;2022-08-21T12:39:43;4.47;;;2.22;;
8104;SDS011;4095;48.942;9.104;2022-08-21T12:42:15;3.90;;;2.13;;
8104;SDS011;4095;48.942;9.104;2022-08-21T12:44:43;2.95;;;2.20;;
8104;SDS011;4095;48.942;9.104;2022-08-21T12:47:17;3.67;;;2.42;;
8104;SDS011;4095;48.942;9.104;2022-08-21T12:49:56;3.67;;;2.17;;
8104;SDS011;4095;48.942;9.104;2022-08-21T12:52:27;3.20;;;2.30;;
8104;SDS011;4095;48.942;9.104;2022-08-21T12:54:58;2.95;;;2.20;;
8104;SDS011;4095;48.942;9.104;2022-08-21T12:57:25;4.40;;;2.35;;
8104;SDS011;4095;48.942;9.104;2022-08-21T13:00:03;4.13;;;2.70;;
8104;SDS011;4095;48.942;9.104;2022-08-21T13:02:36;3.63;;;2.30;;
8104;SDS011;4095;48.942;9.104;2022-08-21T13:05:07;4.10;;;2.38;;
8104;SDS011;4095;48.942;9.104;2022-08-21T13:07:38;5.25;;;2.90;;
8104;SDS011;4095;48.942;9.104;2022-08-21T13:10:26;4.18;;;2.90;;
8104;SDS011;4095;48.942;9.104;2022-08-21T13:12:57;4.60;;;3.00;;
8104;SDS011;4095;48.942;9.104;2022-08-21T13:15:29;3.70;;;2.60;;
8104;SDS011;4095;48.942;9.104;2022-08-21T13:18:00;4.93;;;3.10;;
8104;SDS011;4095;48.942;9.104;2022-08-21T13:20:37;5.32;;;3.00;;
8104;SDS011;4095;48.942;9.104;2022-08-21T13:23:07;5.03;;;3.28;;
8104;SDS011;4095;48.942;9.104;2022-08-21T13:25:48;5.57;;;2.78;;
8104;SDS011;4095;48.942;9.104;2022-08-21T13:28:14;4.18;;;2.58;;
8104;SDS011;4095;48.942;9.104;2022-08-21T13:30:44;5.20;;;2.63;;
8104;SDS011;4095;48.942;9.104;2022-08-21T13:33:13;3.92;;;2.42;;
8104;SDS011;4095;48.942;9.104;2022-08-21T13:35:59;3.83;;;2.90;;
8104;SDS011;4095;48.942;9.104;2022-08-21T13:38:30;5.22;;;2.50;;
8104;SDS011;4095;48.942;9.104;2022-08-21T13:40:58;3.22;;;2.40;;
8104;SDS011;4095;48.942;9.104;2022-08-21T13:43:33;4.53;;;2.40;;
8104;SDS011;4095;48.942;9.104;2022-08-21T13:46:00;4.60;;;2.55;;
8104;SDS011;4095;48.942;9.104;2022-08-21T13:48:32;4.15;;;2.60;;
8104;SDS011;4095;48.942;9.104;2022-08-21T13:50:59;2.65;;;2.25;;
8104;SDS011;4095;48.942;9.104;2022-08-21T13:53:30;3.97;;;2.55;;
8104;SDS011;4095;48.942;9.104;2022-08-21T13:55:59;2.58;;;2.38;;
8104;SDS011;4095;48.942;9.104;2022-08-21T14:00:56;5.22;;;2.50;;
8104;SDS011;4095;48.942;9.104;2022-08-21T14:03:32;3.97;;;2.42;;
8104;SDS011;4095;48.942;9.104;2022-08-21T14:06:18;3.95;;;2.60;;
8104;SDS011;4095;48.942;9.104;2022-08-21T14:08:50;4.82;;;2.80;;
8104;SDS011;4095;48.942;9.104;2022-08-21T14:11:25;3.22;;;2.70;;
8104;SDS011;4095;48.942;9.104;2022-08-21T14:16:26;3.83;;;2.30;;
8104;SDS011;4095;48.942;9.104;2022-08-21T14:21:31;4.68;;;2.65;;
8104;SDS011;4095;48.942;9.104;2022-08-21T14:24:42;4.13;;;2.50;;
8104;SDS011;4095;48.942;9.104;2022-08-21T14:26:50;4.63;;;2.78;;
8104;SDS011;4095;48.942;9.104;2022-08-21T14:29:16;4.90;;;2.50;;
8104;SDS011;4095;48.942;9.104;2022-08-21T14:31:48;5.68;;;2.83;;
8104;SDS011;4095;48.942;9.104;2022-08-21T14:34:15;4.43;;;2.80;;
8104;SDS011;4095;48.942;9.104;2022-08-21T14:36:42;3.42;;;2.33;;
8104;SDS011;4095;48.942;9.104;2022-08-21T14:39:08;3.97;;;2.42;;
8104;SDS011;4095;48.942;9.104;2022-08-21T14:41:34;3.78;;;2.33;;
8104;SDS011;4095;48.942;9.104;2022-08-21T14:44:01;2.83;;;2.38;;
8104;SDS011;4095;48.942;9.104;2022-08-21T14:46:28;5.30;;;2.80;;
8104;SDS011;4095;48.942;9.104;2022-08-21T14:48:54;3.67;;;2.35;;
8104;SDS011;4095;48.942;9.104;2022-08-21T14:51:20;5.03;;;2.50;;
8104;SDS011;4095;48.942;9.104;2022-08-21T14:53:46;4.85;;;2.70;;
8104;SDS011;4095;48.942;9.104;2022-08-21T14:56:13;3.55;;;2.40;;
8104;SDS011;4095;48.942;9.104;2022-08-21T14:58:41;4.28;;;2.58;;
8104;SDS011;4095;48.942;9.104;2022-08-21T15:01:09;6.82;;;2.80;;
8104;SDS011;4095;48.942;9.104;2022-08-21T15:03:37;4.85;;;2.50;;
8104;SDS011;4095;48.942;9.104;2022-08-21T15:06:03;4.18;;;2.50;;
8104;SDS011;4095;48.942;9.104;2022-08-21T15:08:31;4.70;;;2.67;;
8104;SDS011;4095;48.942;9.104;2022-08-21T15:10:57;5.45;;;2.70;;
8104;SDS011;4095;48.942;9.104;2022-08-21T15:13:24;4.93;;;2.70;;
8104;SDS011;4095;48.942;9.104;2022-08-21T15:15:50;6.05;;;2.70;;
8104;SDS011;4095;48.942;9.104;2022-08-21T15:18:18;4.40;;;2.75;;
8104;SDS011;4095;48.942;9.104;2022-08-21T15:20:44;4.80;;;2.47;;
8104;SDS011;4095;48.942;9.104;2022-08-21T15:23:10;4.60;;;2.72;;
8104;SDS011;4095;48.942;9.104;2022-08-21T15:25:35;4.18;;;2.95;;
8104;SDS011;4095;48.942;9.104;2022-08-21T15:28:01;5.03;;;3.25;;
8104;SDS011;4095;48.942;9.104;2022-08-21T15:30:28;4.47;;;3.10;;
8104;SDS011;4095;48.942;9.104;2022-08-21T15:32:55;5.00;;;2.70;;
8104;SDS011;4095;48.942;9.104;2022-08-21T15:35:21;3.88;;;2.72;;
8104;SDS011;4095;48.942;9.104;2022-08-21T15:37:46;4.70;;;2.78;;
8104;SDS011;4095;48.942;9.104;2022-08-21T15:40:12;4.70;;;2.50;;
8104;SDS011;4095;48.942;9.104;2022-08-21T15:42:41;4.80;;;2.45;;
8104;SDS011;4095;48.942;9.104;2022-08-21T15:45:08;4.35;;;2.80;;
8104;SDS011;4095;48.942;9.104;2022-08-21T15:47:36;4.70;;;2.80;;
8104;SDS011;4095;48.942;9.104;2022-08-21T15:50:03;5.95;;;2.90;;
8104;SDS011;4095;48.942;9.104;2022-08-21T15:52:32;5.03;;;3.10;;
8104;SDS011;4095;48.942;9.104;2022-08-21T15:54:58;4.32;;;2.40;;
8104;SDS011;4095;48.942;9.104;2022-08-21T15:57:23;5.32;;;2.55;;
8104;SDS011;4095;48.942;9.104;2022-08-21T15:59:57;3.92;;;2.60;;
8104;SDS011;4095;48.942;9.104;2022-08-21T16:02:33;4.38;;;2.70;;
8104;SDS011;4095;48.942;9.104;2022-08-21T16:04:58;5.13;;;3.00;;
8104;SDS011;4095;48.942;9.104;2022-08-21T16:07:24;4.78;;;2.90;;
8104;SDS011;4095;48.942;9.104;2022-08-21T16:09:50;3.70;;;2.55;;
8104;SDS011;4095;48.942;9.104;2022-08-21T16:12:38;5.40;;;2.83;;
8104;SDS011;4095;48.942;9.104;2022-08-21T16:15:14;5.35;;;2.80;;
8104;SDS011;4095;48.942;9.104;2022-08-21T16:17:41;4.53;;;2.60;;
8104;SDS011;4095;48.942;9.104;2022-08-21T16:20:13;3.95;;;2.90;;
8104;SDS011;4095;48.942;9.104;2022-08-21T16:22:40;4.63;;;2.60;;
8104;SDS011;4095;48.942;9.104;2022-08-21T16:25:06;4.18;;;2.80;;
8104;SDS011;4095;48.942;9.104;2022-08-21T16:27:33;3.92;;;2.80;;
8104;SDS011;4095;48.942;9.104;2022-08-21T16:30:00;4.43;;;2.58;;
8104;SDS011;4095;48.942;9.104;2022-08-21T16:32:27;5.03;;;2.70;;
8104;SDS011;4095;48.942;9.104;2022-08-21T16:34:53;4.47;;;2.63;;
8104;SDS011;4095;48.942;9.104;2022-08-21T16:37:19;4.75;;;2.53;;
8104;SDS011;4095;48.942;9.104;2022-08-21T16:39:46;3.97;;;2.67;;
8104;SDS011;4095;48.942;9.104;2022-08-21T16:42:12;4.22;;;2.38;;
8104;SDS011;4095;48.942;9.104;2022-08-21T16:44:42;3.85;;;2.30;;
8104;SDS011;4095;48.942;9.104;2022-08-21T16:47:07;7.55;;;3.03;;
8104;SDS011;4095;48.942;9.104;2022-08-21T16:49:33;4.22;;;2.50;;
8104;SDS011;4095;48.942;9.104;2022-08-21T16:51:59;4.47;;;2.40;;
8104;SDS011;4095;48.942;9.104;2022-08-21T16:54:25;5.55;;;2.63;;
8104;SDS011;4095;48.942;9.104;2022-08-21T16:56:50;3.75;;;2.47;;
8104;SDS011;4095;48.942;9.104;2022-08-21T16:59:16;3.55;;;2.40;;
8104;SDS011;4095;48.942;9.104;2022-08-21T17:01:42;3.42;;;2.63;;
8104;SDS011;4095;48.942;9.104;2022-08-21T17:04:08;4.18;;;2.50;;